Time;durP1;ratioP1;P1;durP2;ratioP2;P2;SDS_P1;SDS_P2;PMS_P1;PMS_P2;Temp;Humidity;BMP_temperature;BMP_pressure;BME280_temperature;BME280_humidity;BME280_pressure;Samples;Min_cycle;Max_cycle;Signal;HPM_P1;HPM_P2
2022/03/24 00:01:34;;;;;;;21.37;17.97;;;9.30;38.00;;;;;;5094695;28;20708;-41
2022/03/24 00:04:00;;;;;;;23.53;18.97;;;9.30;38.10;;;;;;5093749;28;20426;-42
2022/03/24 00:06:25;;;;;;;23.47;18.03;;;9.30;38.10;;;;;;5094580;28;20543;-42
2022/03/24 00:08:51;;;;;;;21.20;18.87;;;9.30;38.20;;;;;;5093406;28;20207;-43
2022/03/24 00:11:20;;;;;;;24.10;19.77;;;9.20;38.10;;;;;;5093525;28;20594;-43
2022/03/24 00:13:48;;;;;;;24.80;19.53;;;9.20;38.20;;;;;;5094403;28;20528;-42
2022/03/24 00:16:15;;;;;;;22.20;19.67;;;9.20;38.40;;;;;;5095251;28;20476;-43
2022/03/24 00:18:41;;;;;;;21.70;18.67;;;9.10;38.40;;;;;;5094141;28;20688;-43
2022/03/24 00:21:07;;;;;;;23.10;19.73;;;9.10;38.40;;;;;;5095611;28;20806;-43
2022/03/24 00:23:32;;;;;;;20.90;18.70;;;9.10;38.50;;;;;;5094077;28;20434;-43
2022/03/24 00:25:58;;;;;;;20.33;18.17;;;9.00;38.60;;;;;;5096293;28;20185;-43
2022/03/24 00:28:23;;;;;;;19.50;17.37;;;9.00;38.80;;;;;;5097832;28;20192;-42
2022/03/24 00:30:49;;;;;;;22.90;18.23;;;8.90;38.80;;;;;;5099077;28;20210;-41
2022/03/24 00:33:15;;;;;;;21.97;19.50;;;8.80;38.90;;;;;;5097720;28;20427;-42
2022/03/24 00:35:40;;;;;;;20.70;17.90;;;8.80;39.00;;;;;;5098829;28;20462;-42
2022/03/24 00:38:07;;;;;;;23.33;18.97;;;8.80;39.00;;;;;;5099138;28;20337;-43
2022/03/24 00:40:32;;;;;;;23.03;19.23;;;8.80;39.20;;;;;;5098696;28;20177;-42
2022/03/24 00:42:59;;;;;;;23.20;18.37;;;8.70;39.20;;;;;;5096404;28;20438;-43
2022/03/24 00:45:25;;;;;;;26.17;20.17;;;8.70;39.30;;;;;;5096776;28;20189;-42
2022/03/24 00:47:51;;;;;;;21.50;19.17;;;8.70;39.30;;;;;;5096673;28;20431;-39
2022/03/24 00:50:17;;;;;;;21.77;18.97;;;8.60;39.30;;;;;;5097291;28;20701;-42
2022/03/24 00:52:43;;;;;;;22.90;19.03;;;8.60;39.50;;;;;;5095945;28;20482;-40
2022/03/24 00:55:12;;;;;;;21.23;17.13;;;8.50;39.60;;;;;;5097080;28;20175;-41
2022/03/24 00:57:39;;;;;;;20.40;18.30;;;8.50;39.60;;;;;;5096907;28;20407;-42
2022/03/24 01:00:06;;;;;;;22.77;19.07;;;8.50;39.60;;;;;;5098900;28;20411;-41
2022/03/24 01:02:34;;;;;;;20.40;18.20;;;8.50;39.70;;;;;;5097762;28;20427;-41
2022/03/24 01:05:01;;;;;;;23.63;18.40;;;8.50;39.80;;;;;;5098700;28;20793;-43
2022/03/24 01:07:28;;;;;;;8.33;6.50;;;8.40;39.80;;;;;;5098709;28;20790;-38
2022/03/24 01:09:53;;;;;;;9.80;7.17;;;8.60;46.00;;;;;;5097409;28;20688;-39
2022/03/24 01:12:19;;;;;;;11.50;8.10;;;9.10;53.00;;;;;;5098492;28;20463;-38
2022/03/24 01:14:45;;;;;;;8.90;7.10;;;9.70;56.30;;;;;;5099394;28;20176;-37
2022/03/24 01:17:14;;;;;;;10.90;8.13;;;10.30;57.00;;;;;;5096883;28;20452;-41
2022/03/24 01:19:40;;;;;;;9.00;8.07;;;10.90;57.20;;;;;;5098509;28;20894;-42
2022/03/24 01:22:06;;;;;;;11.43;9.00;;;11.30;56.40;;;;;;5096163;28;20427;-40
2022/03/24 01:24:31;;;;;;;10.97;8.60;;;11.70;55.30;;;;;;5097703;28;20185;-39
2022/03/24 01:26:57;;;;;;;10.43;9.37;;;12.00;54.00;;;;;;5096647;28;20185;-42
2022/03/24 01:29:23;;;;;;;10.60;9.07;;;12.30;52.70;;;;;;5098621;28;20185;-40
2022/03/24 01:31:49;;;;;;;11.10;9.97;;;12.50;51.50;;;;;;5097118;28;20226;-41
2022/03/24 01:34:17;;;;;;;11.90;10.70;;;12.70;50.50;;;;;;5098944;28;20418;-43
2022/03/24 01:36:43;;;;;;;19.07;17.03;;;12.70;47.70;;;;;;5095830;28;20593;-43
2022/03/24 01:39:10;;;;;;;19.57;17.27;;;12.60;42.50;;;;;;5098311;28;20413;-43
2022/03/24 01:41:38;;;;;;;20.07;17.77;;;12.30;39.60;;;;;;5098944;28;20208;-41
2022/03/24 01:44:12;;;;;;;19.40;17.40;;;11.90;38.70;;;;;;5098553;28;20435;-43
2022/03/24 01:46:38;;;;;;;19.67;17.73;;;11.50;38.40;;;;;;5098898;28;20857;-43
2022/03/24 01:49:04;;;;;;;20.80;17.40;;;11.10;38.40;;;;;;5097495;28;20466;-43
2022/03/24 01:51:29;;;;;;;20.60;18.57;;;10.70;38.50;;;;;;5098349;28;20463;-42
2022/03/24 01:53:59;;;;;;;22.10;19.80;;;10.30;38.70;;;;;;5098253;28;20185;-42
2022/03/24 01:56:26;;;;;;;20.90;18.70;;;10.00;38.90;;;;;;5080648;28;20173;-41
2022/03/24 01:58:52;;;;;;;21.87;17.73;;;9.80;39.90;;;;;;5096581;28;20447;-43
2022/03/24 02:01:35;;;;;;;21.67;19.40;;;9.60;40.20;;;;;;5079551;28;20419;-42
2022/03/24 02:04:03;;;;;;;23.90;19.13;;;9.40;40.40;;;;;;5094435;28;20499;-43
2022/03/24 02:06:29;;;;;;;19.77;17.57;;;9.20;40.60;;;;;;5095294;28;20780;-43
2022/03/24 02:09:35;;;;;;;23.50;19.27;;;9.10;40.70;;;;;;5097165;28;20500;-41
2022/03/24 02:12:03;;;;;;;21.00;17.93;;;8.90;40.80;;;;;;5094290;28;20571;-42
2022/03/24 02:14:29;;;;;;;22.77;18.63;;;8.80;41.00;;;;;;5096611;28;20475;-39
2022/03/24 02:16:55;;;;;;;21.27;18.37;;;8.60;41.10;;;;;;5096181;28;20440;-42
2022/03/24 02:19:23;;;;;;;24.63;19.17;;;8.50;41.40;;;;;;5097459;28;20429;-42
2022/03/24 02:21:51;;;;;;;23.63;18.70;;;8.40;41.70;;;;;;5096520;28;20449;-43
2022/03/24 02:24:19;;;;;;;19.57;17.37;;;8.30;41.80;;;;;;5097444;28;20767;-43
2022/03/24 02:26:46;;;;;;;19.37;16.57;;;8.20;42.00;;;;;;5096583;28;20431;-41
2022/03/24 02:29:14;;;;;;;23.30;19.53;;;8.10;42.20;;;;;;5096631;28;20413;-42
2022/03/24 02:31:43;;;;;;;23.40;19.23;;;8.00;42.30;;;;;;5096173;28;20474;-43
2022/03/24 02:36:59;;;;;;;22.90;18.53;;;7.80;42.60;;;;;;5094887;28;20565;-43
2022/03/24 02:39:25;;;;;;;23.47;18.83;;;7.80;42.70;;;;;;5097026;28;20432;-40
2022/03/24 02:41:54;;;;;;;21.83;18.30;;;7.70;42.80;;;;;;5096258;28;20435;-42
2022/03/24 02:44:22;;;;;;;23.90;18.97;;;7.70;43.00;;;;;;5095612;28;20705;-41
2022/03/24 02:46:49;;;;;;;22.90;18.23;;;7.60;43.00;;;;;;5097142;28;20426;-43
2022/03/24 02:49:19;;;;;;;23.03;19.13;;;7.60;43.10;;;;;;5097576;28;20747;-42
2022/03/24 02:51:45;;;;;;;24.87;19.50;;;7.50;43.20;;;;;;5117135;28;20458;-42
2022/03/24 02:54:12;;;;;;;24.10;20.40;;;7.50;43.20;;;;;;5114540;28;20442;-42
2022/03/24 02:56:38;;;;;;;22.20;19.10;;;7.50;43.30;;;;;;5116480;27;20406;-43
2022/03/24 02:59:06;;;;;;;22.67;18.50;;;7.40;43.20;;;;;;5116548;28;20446;-41
2022/03/24 03:01:33;;;;;;;21.63;17.37;;;7.40;43.40;;;;;;5117160;28;20420;-43
2022/03/24 03:03:59;;;;;;;20.20;18.00;;;7.30;43.50;;;;;;5116330;28;20436;-42
2022/03/24 03:06:25;;;;;;;23.50;18.30;;;7.30;43.70;;;;;;5116343;28;20417;-43
2022/03/24 03:08:51;;;;;;;27.27;19.63;;;7.20;43.70;;;;;;5116442;28;20426;-43
2022/03/24 03:11:17;;;;;;;20.90;18.60;;;7.20;43.80;;;;;;5116620;28;20469;-43
2022/03/24 03:13:45;;;;;;;21.90;18.63;;;7.10;44.00;;;;;;5115269;28;20184;-41
2022/03/24 03:16:12;;;;;;;23.00;20.10;;;7.10;44.10;;;;;;5116151;28;20442;-43
2022/03/24 03:18:39;;;;;;;26.80;20.53;;;7.10;44.20;;;;;;5116442;28;20687;-40
2022/03/24 03:21:04;;;;;;;24.40;19.63;;;7.00;44.20;;;;;;5116339;28;20482;-42
2022/03/24 03:23:30;;;;;;;29.57;21.37;;;7.00;44.40;;;;;;5115574;28;20437;-42
2022/03/24 03:25:56;;;;;;;28.30;21.33;;;7.00;44.50;;;;;;5116795;28;20202;-43
2022/03/24 03:28:22;;;;;;;28.43;21.73;;;6.90;44.60;;;;;;5116026;28;20289;-43
2022/03/24 03:30:47;;;;;;;30.00;23.47;;;6.90;44.80;;;;;;5116984;28;20515;-43
2022/03/24 03:33:13;;;;;;;35.37;25.30;;;6.80;44.90;;;;;;5113542;28;20176;-40
2022/03/24 03:35:39;;;;;;;39.47;26.33;;;6.80;45.10;;;;;;5116388;28;20252;-42
2022/03/24 03:38:05;;;;;;;37.10;26.60;;;6.80;45.20;;;;;;5115465;28;20444;-41
2022/03/24 03:40:31;;;;;;;47.70;30.17;;;6.70;45.30;;;;;;5116937;28;20194;-42
2022/03/24 03:42:57;;;;;;;39.47;27.83;;;6.70;45.40;;;;;;5115153;28;20267;-41
2022/03/24 03:45:23;;;;;;;40.90;27.67;;;6.70;45.50;;;;;;5116712;28;20493;-41
2022/03/24 03:47:48;;;;;;;41.30;30.17;;;6.70;45.40;;;;;;5115590;28;20510;-42
2022/03/24 03:50:15;;;;;;;47.73;31.77;;;6.70;45.30;;;;;;5116361;28;20525;-40
2022/03/24 03:52:40;;;;;;;43.00;28.30;;;6.70;45.30;;;;;;5115370;28;20269;-41
2022/03/24 03:55:07;;;;;;;39.97;28.17;;;6.70;45.40;;;;;;5116082;28;20438;-42
2022/03/24 03:57:33;;;;;;;34.60;25.43;;;6.60;45.40;;;;;;5115724;28;20255;-42
2022/03/24 04:00:52;;;;;;;30.77;23.97;;;6.50;45.50;;;;;;5098891;28;20418;-40
2022/03/24 04:02:47;;;;;;;28.20;23.03;;;6.50;45.70;;;;;;5116855;28;20429;-39
2022/03/24 04:05:13;;;;;;;28.73;22.50;;;6.50;46.00;;;;;;5120126;28;20421;-36
2022/03/24 04:07:38;;;;;;;28.03;22.17;;;6.50;46.10;;;;;;5116704;28;20223;-41
2022/03/24 04:10:04;;;;;;;27.60;21.73;;;6.50;46.20;;;;;;5120745;28;20187;-42
2022/03/24 04:12:30;;;;;;;26.60;21.50;;;6.40;46.40;;;;;;5118977;28;20199;-38
2022/03/24 04:14:56;;;;;;;29.23;21.90;;;6.40;46.70;;;;;;5119787;28;20417;-38
2022/03/24 04:17:22;;;;;;;24.27;19.93;;;6.30;46.90;;;;;;5120213;28;20673;-41
2022/03/24 04:19:47;;;;;;;30.27;22.10;;;6.20;47.20;;;;;;5120153;28;20172;-39
2022/03/24 04:22:13;;;;;;;23.50;20.20;;;6.20;47.30;;;;;;5119239;28;20447;-42
2022/03/24 04:24:39;;;;;;;23.43;20.73;;;6.20;47.20;;;;;;5118600;28;20184;-42
2022/03/24 04:27:06;;;;;;;24.97;19.67;;;6.30;47.50;;;;;;5120049;28;20411;-42
2022/03/24 04:29:31;;;;;;;24.53;19.23;;;6.30;47.60;;;;;;5119384;28;20245;-42
2022/03/24 04:31:57;;;;;;;22.90;19.30;;;6.20;47.60;;;;;;5119665;28;20468;-41
2022/03/24 04:34:23;;;;;;;23.00;18.97;;;6.20;47.80;;;;;;5119029;28;20520;-38
2022/03/24 04:36:49;;;;;;;24.43;19.70;;;6.10;48.00;;;;;;5119082;28;20531;-42
2022/03/24 04:39:15;;;;;;;25.50;21.60;;;6.10;48.20;;;;;;5118275;28;20448;-41
2022/03/24 04:41:41;;;;;;;25.90;19.33;;;6.10;48.40;;;;;;5118359;28;20412;-41
2022/03/24 04:44:07;;;;;;;27.23;19.53;;;6.10;48.50;;;;;;5117561;28;20429;-38
2022/03/24 04:46:33;;;;;;;24.40;20.73;;;6.00;48.40;;;;;;5120242;28;20410;-41
2022/03/24 04:48:59;;;;;;;22.87;19.63;;;6.00;48.50;;;;;;5118263;28;20477;-41
2022/03/24 04:51:25;;;;;;;23.77;19.53;;;6.00;48.60;;;;;;5118487;28;20467;-40
2022/03/24 04:53:51;;;;;;;24.93;18.90;;;5.90;48.90;;;;;;5115415;28;21050;-41
2022/03/24 04:56:16;;;;;;;26.50;19.97;;;5.90;49.00;;;;;;5119077;28;20413;-41
2022/03/24 04:58:42;;;;;;;24.83;19.63;;;5.90;49.00;;;;;;5116799;28;20522;-42
2022/03/24 05:01:08;;;;;;;25.30;19.37;;;5.90;49.20;;;;;;5115436;28;20179;-42
2022/03/24 05:03:34;;;;;;;23.70;19.50;;;5.80;49.30;;;;;;5114806;28;20176;-48
2022/03/24 05:05:59;;;;;;;25.13;19.73;;;5.80;49.30;;;;;;5114726;28;20203;-48
2022/03/24 05:08:25;;;;;;;24.00;19.67;;;5.90;49.40;;;;;;5115037;28;20433;-48
2022/03/24 05:10:50;;;;;;;24.87;18.27;;;5.90;49.20;;;;;;5113635;28;20257;-48
2022/03/24 05:13:16;;;;;;;22.93;19.07;;;6.00;48.80;;;;;;5115700;28;20164;-48
2022/03/24 05:15:42;;;;;;;24.57;19.10;;;6.00;48.70;;;;;;5113574;28;20367;-48
2022/03/24 05:18:08;;;;;;;27.10;19.00;;;6.00;48.90;;;;;;5116469;28;20670;-48
2022/03/24 05:20:34;;;;;;;23.47;18.80;;;5.90;49.00;;;;;;5115436;28;20716;-48
2022/03/24 05:23:00;;;;;;;22.60;18.67;;;5.90;49.20;;;;;;5115023;28;20414;-48
2022/03/24 05:25:26;;;;;;;23.13;19.00;;;5.80;49.20;;;;;;5115382;28;20184;-48
2022/03/24 05:27:51;;;;;;;23.47;19.93;;;5.80;49.40;;;;;;5116163;28;20237;-48
2022/03/24 05:30:17;;;;;;;22.70;19.10;;;5.80;49.60;;;;;;5115589;28;20426;-48
2022/03/24 05:32:43;;;;;;;25.80;21.77;;;5.80;49.60;;;;;;5114919;28;20426;-48
2022/03/24 05:35:11;;;;;;;22.10;18.33;;;5.80;49.50;;;;;;5116371;28;20450;-48
2022/03/24 05:37:36;;;;;;;22.70;18.20;;;5.80;49.60;;;;;;5113153;28;20184;-45
2022/03/24 05:40:03;;;;;;;24.07;18.87;;;5.80;49.80;;;;;;5114976;28;20410;-42
2022/03/24 05:42:29;;;;;;;22.70;18.80;;;5.80;50.00;;;;;;5114016;28;20200;-42
2022/03/24 05:44:54;;;;;;;24.60;19.73;;;5.80;50.20;;;;;;5114704;28;20861;-45
2022/03/24 05:47:21;;;;;;;26.43;20.37;;;5.80;50.40;;;;;;5114102;28;20264;-42
2022/03/24 05:49:47;;;;;;;24.50;20.67;;;5.90;50.60;;;;;;5113939;28;20180;-43
2022/03/24 05:52:12;;;;;;;22.87;19.73;;;5.90;50.60;;;;;;5116282;28;20560;-43
2022/03/24 05:54:38;;;;;;;23.83;18.60;;;5.90;50.80;;;;;;5113775;28;20465;-43
2022/03/24 05:57:04;;;;;;;27.33;19.17;;;5.90;50.80;;;;;;5115207;28;20550;-44
2022/03/24 05:59:30;;;;;;;24.70;18.83;;;6.00;50.90;;;;;;5112957;28;20180;-43
2022/03/24 06:01:56;;;;;;;22.80;18.90;;;6.10;50.80;;;;;;5111328;28;20417;-42
2022/03/24 06:04:22;;;;;;;26.40;18.93;;;6.20;50.60;;;;;;5110740;27;20418;-43
2022/03/24 06:06:53;;;;;;;21.30;17.70;;;6.40;50.40;;;;;;5112904;28;20410;-42
2022/03/24 06:09:20;;;;;;;26.00;21.10;;;6.50;50.20;;;;;;5112828;28;20434;-44
2022/03/24 06:11:46;;;;;;;23.27;18.53;;;6.70;50.10;;;;;;5112860;28;20462;-43
2022/03/24 06:14:12;;;;;;;21.50;19.17;;;6.80;50.00;;;;;;5112776;28;20491;-43
2022/03/24 06:16:39;;;;;;;22.97;18.50;;;6.90;49.80;;;;;;5110552;28;20182;-42
2022/03/24 06:19:05;;;;;;;19.20;16.97;;;7.10;49.60;;;;;;5109636;28;20458;-41
2022/03/24 06:21:30;;;;;;;20.77;18.60;;;7.30;49.30;;;;;;5109734;28;20914;-43
2022/03/24 06:23:56;;;;;;;22.47;18.67;;;7.40;48.90;;;;;;5111308;28;20186;-42
2022/03/24 06:26:23;;;;;;;20.40;17.70;;;7.60;48.00;;;;;;5108787;28;20279;-42
2022/03/24 06:28:49;;;;;;;21.67;17.63;;;7.80;47.40;;;;;;5111775;28;20417;-42
2022/03/24 06:31:15;;;;;;;23.63;19.30;;;8.00;47.10;;;;;;5109979;28;20964;-42
2022/03/24 06:33:41;;;;;;;21.97;19.53;;;8.10;47.00;;;;;;5111854;28;20496;-44
2022/03/24 06:36:08;;;;;;;21.83;19.17;;;8.30;46.80;;;;;;5112145;28;20649;-42
2022/03/24 06:38:34;;;;;;;23.20;19.20;;;8.50;46.40;;;;;;5110626;28;20479;-43
2022/03/24 06:41:00;;;;;;;19.23;17.20;;;8.70;46.00;;;;;;5113653;28;20453;-42
2022/03/24 06:43:27;;;;;;;20.50;18.30;;;8.80;45.50;;;;;;5110018;28;20416;-42
2022/03/24 06:45:52;;;;;;;21.87;19.40;;;9.10;45.20;;;;;;5108273;28;20237;-41
2022/03/24 06:48:18;;;;;;;20.50;18.40;;;9.30;44.90;;;;;;5110744;28;20412;-42
2022/03/24 06:50:44;;;;;;;20.07;17.90;;;9.50;44.50;;;;;;5110742;28;20439;-41
2022/03/24 06:53:11;;;;;;;24.93;19.00;;;9.70;44.10;;;;;;5110029;27;20480;-42
2022/03/24 06:55:37;;;;;;;21.67;18.57;;;10.00;43.10;;;;;;5124351;27;20548;-42
2022/03/24 06:58:03;;;;;;;22.07;18.93;;;10.20;42.70;;;;;;5132593;27;20424;-42
2022/03/24 07:00:28;;;;;;;19.93;17.20;;;10.50;42.40;;;;;;5124501;27;20184;-45
2022/03/24 07:02:54;;;;;;;29.27;19.03;;;10.70;42.00;;;;;;5109729;28;20461;-42
2022/03/24 07:05:20;;;;;;;27.70;19.50;;;11.00;41.70;;;;;;5109467;28;20412;-45
2022/03/24 07:07:45;;;;;;;24.57;19.73;;;11.20;41.30;;;;;;5108285;28;20245;-43
2022/03/24 07:10:11;;;;;;;21.10;17.90;;;11.50;41.50;;;;;;5109994;28;20172;-43
2022/03/24 07:12:38;;;;;;;20.97;18.77;;;11.80;40.70;;;;;;5109201;28;20669;-42
2022/03/24 07:15:08;;;;;;;24.30;18.20;;;12.10;40.30;;;;;;5092696;28;20503;-43
2022/03/24 07:17:35;;;;;;;22.63;19.53;;;12.40;39.70;;;;;;5092403;28;20475;-43
2022/03/24 07:20:03;;;;;;;21.97;19.60;;;12.70;39.10;;;;;;5092792;28;20404;-44
2022/03/24 07:22:34;;;;;;;21.20;18.90;;;12.90;38.80;;;;;;5093081;28;20403;-43
2022/03/24 07:25:00;;;;;;;22.07;19.13;;;13.20;38.50;;;;;;5093195;28;20446;-45
2022/03/24 07:27:26;;;;;;;21.80;19.07;;;13.40;38.20;;;;;;5090020;28;20426;-42
2022/03/24 07:29:52;;;;;;;20.47;18.07;;;13.80;38.00;;;;;;5088973;28;20686;-41
2022/03/24 07:32:18;;;;;;;19.57;17.53;;;14.00;37.70;;;;;;5089660;28;20212;-41
2022/03/24 07:34:44;;;;;;;20.60;18.40;;;14.30;37.40;;;;;;5089097;28;20474;-42
2022/03/24 07:37:09;;;;;;;21.40;19.20;;;14.60;37.00;;;;;;5091079;28;20420;-43
2022/03/24 07:39:35;;;;;;;24.73;20.00;;;14.90;36.70;;;;;;5095166;28;20182;-42
2022/03/24 07:42:01;;;;;;;26.90;20.17;;;15.20;36.30;;;;;;5095194;28;20256;-43
2022/03/24 07:44:27;;;;;;;21.53;18.93;;;15.40;35.90;;;;;;5091511;28;20282;-46
2022/03/24 07:46:53;;;;;;;22.30;20.10;;;15.80;35.70;;;;;;5094253;28;20222;-44
2022/03/24 07:49:19;;;;;;;22.03;19.27;;;16.00;35.40;;;;;;5120757;27;20897;-45
2022/03/24 07:51:44;;;;;;;23.40;21.00;;;16.30;35.00;;;;;;5115982;27;20215;-44
2022/03/24 07:54:10;;;;;;;22.47;20.20;;;16.60;34.70;;;;;;5113755;28;20244;-44
2022/03/24 07:56:37;;;;;;;23.43;19.83;;;16.90;34.50;;;;;;5111111;28;20185;-44
2022/03/24 07:59:05;;;;;;;22.13;19.60;;;17.20;34.30;;;;;;5110643;28;20422;-43
2022/03/24 08:01:32;;;;;;;21.70;19.40;;;17.50;34.10;;;;;;5112603;28;20413;-42
2022/03/24 08:03:59;;;;;;;22.23;19.93;;;17.90;33.70;;;;;;5111469;28;20711;-43
2022/03/24 08:06:28;;;;;;;25.60;20.30;;;18.20;33.30;;;;;;5113798;28;20505;-43
2022/03/24 08:08:54;;;;;;;22.17;19.97;;;18.60;32.90;;;;;;5113190;28;20424;-43
2022/03/24 08:11:21;;;;;;;21.27;19.23;;;18.90;32.60;;;;;;5111228;28;20895;-42
2022/03/24 08:13:50;;;;;;;23.57;20.90;;;19.30;32.20;;;;;;5112044;28;20525;-41
2022/03/24 08:16:16;;;;;;;21.77;19.43;;;19.70;31.80;;;;;;5109827;28;20519;-44
2022/03/24 08:18:42;;;;;;;22.70;20.30;;;20.10;31.40;;;;;;5112985;28;20490;-43
2022/03/24 08:21:08;;;;;;;22.90;20.60;;;20.40;30.80;;;;;;5109186;28;20184;-43
2022/03/24 08:23:33;;;;;;;18.13;14.00;;;20.80;30.30;;;;;;5114025;28;20700;-46
2022/03/24 08:25:59;;;;;;;4.90;4.50;;;21.10;31.40;;;;;;5113267;28;20423;-47
2022/03/24 08:28:24;;;;;;;8.17;7.43;;;21.50;36.90;;;;;;5113217;28;20552;-48
2022/03/24 08:30:51;;;;;;;8.77;7.90;;;21.90;37.20;;;;;;5110948;28;20183;-46
2022/03/24 08:33:16;;;;;;;10.30;9.03;;;22.30;36.50;;;;;;5113561;28;20214;-46
2022/03/24 08:35:42;;;;;;;13.43;9.63;;;22.70;35.50;;;;;;5112819;28;20477;-46
2022/03/24 08:38:13;;;;;;;11.60;10.50;;;23.20;34.50;;;;;;5114699;28;20189;-47
2022/03/24 08:40:38;;;;;;;16.43;11.70;;;23.50;33.30;;;;;;5113017;28;20185;-43
2022/03/24 08:43:05;;;;;;;14.33;12.90;;;24.00;32.10;;;;;;5113930;28;20415;-45
2022/03/24 08:45:31;;;;;;;13.97;12.67;;;24.30;31.40;;;;;;5111715;28;20182;-47
2022/03/24 08:47:57;;;;;;;15.20;13.67;;;24.70;30.70;;;;;;5108648;28;20412;-46
2022/03/24 08:50:23;;;;;;;15.03;13.63;;;25.00;30.10;;;;;;5110025;28;20428;-47
2022/03/24 08:52:49;;;;;;;16.73;15.10;;;25.40;29.50;;;;;;5113118;28;20196;-44
2022/03/24 08:55:15;;;;;;;17.93;16.13;;;25.70;28.90;;;;;;5111593;28;20437;-47
2022/03/24 08:57:42;;;;;;;16.33;14.77;;;26.10;28.30;;;;;;5095529;28;20420;-49
2022/03/24 09:00:13;;;;;;;15.60;14.00;;;26.50;28.40;;;;;;5113029;28;20451;-45
2022/03/24 09:02:44;;;;;;;18.20;16.47;;;26.90;28.20;;;;;;5111985;28;20406;-47
2022/03/24 09:05:09;;;;;;;14.23;12.93;;;27.30;28.10;;;;;;5109716;28;20446;-46
2022/03/24 09:07:36;;;;;;;15.90;14.40;;;27.60;28.10;;;;;;5109614;28;20412;-46
2022/03/24 09:10:03;;;;;;;14.13;12.80;;;27.90;27.60;;;;;;5110100;28;20178;-49
2022/03/24 09:12:30;;;;;;;15.97;14.47;;;28.30;27.60;;;;;;5109695;28;20887;-47
2022/03/24 09:14:56;;;;;;;16.00;14.57;;;28.60;27.00;;;;;;5108614;28;20607;-47
2022/03/24 09:17:21;;;;;;;14.73;13.23;;;28.80;27.00;;;;;;5111495;28;20740;-46
2022/03/24 09:19:47;;;;;;;15.27;13.70;;;29.20;27.30;;;;;;5111142;28;20183;-47
2022/03/24 09:22:12;;;;;;;15.83;14.43;;;29.40;26.90;;;;;;5112720;28;20172;-47
2022/03/24 09:24:38;;;;;;;17.27;15.70;;;29.80;26.80;;;;;;5113966;28;20184;-47
2022/03/24 09:27:05;;;;;;;16.77;15.17;;;30.00;26.20;;;;;;5113426;28;20570;-47
2022/03/24 09:29:31;;;;;;;16.10;14.43;;;30.30;25.90;;;;;;5110966;28;20168;-47
2022/03/24 09:31:57;;;;;;;15.60;14.40;;;30.50;25.80;;;;;;5111785;28;20503;-48
2022/03/24 09:34:24;;;;;;;15.53;14.13;;;30.60;25.40;;;;;;5111192;28;20438;-48
2022/03/24 09:36:49;;;;;;;12.67;11.57;;;31.00;25.80;;;;;;5110884;28;20432;-47
2022/03/24 09:39:15;;;;;;;14.60;13.10;;;31.20;25.80;;;;;;5111118;28;20976;-47
2022/03/24 09:41:47;;;;;;;14.03;12.83;;;31.50;25.70;;;;;;5110042;28;20411;-47
2022/03/24 09:44:13;;;;;;;15.27;13.77;;;31.80;25.30;;;;;;5111315;28;20790;-46
2022/03/24 09:46:40;;;;;;;14.80;13.50;;;32.00;25.20;;;;;;5110280;28;20407;-46
2022/03/24 09:49:10;;;;;;;15.10;13.60;;;32.30;24.90;;;;;;5110452;28;20412;-47
2022/03/24 09:51:42;;;;;;;15.20;13.90;;;32.50;24.50;;;;;;5111590;28;20500;-46
2022/03/24 09:54:11;;;;;;;16.17;14.73;;;32.70;24.10;;;;;;5113889;28;20413;-48
2022/03/24 09:56:40;;;;;;;15.33;13.93;;;33.00;24.10;;;;;;5111933;28;20439;-47
2022/03/24 09:59:09;;;;;;;15.60;14.40;;;33.30;24.30;;;;;;5112024;28;20514;-46
2022/03/24 10:01:36;;;;;;;15.17;13.90;;;33.60;24.00;;;;;;5111074;28;20736;-49
2022/03/24 10:04:15;;;;;;;17.07;15.50;;;33.80;23.60;;;;;;5112539;28;20593;-46
2022/03/24 10:07:03;;;;;;;14.80;13.60;;;33.80;23.10;;;;;;5111220;28;20439;-47
2022/03/24 10:09:46;;;;;;;17.73;16.30;;;34.00;23.60;;;;;;5112108;28;20413;-47
2022/03/24 10:12:26;;;;;;;15.07;13.87;;;34.10;23.00;;;;;;5109724;28;20446;-48
2022/03/24 10:15:08;;;;;;;16.30;14.70;;;34.40;23.30;;;;;;5099017;28;20412;-47
2022/03/24 10:17:36;;;;;;;14.40;13.23;;;34.70;22.80;;;;;;5105843;28;20429;-48
2022/03/24 10:20:20;;;;;;;17.80;14.73;;;34.80;23.20;;;;;;5104499;28;20418;-50
2022/03/24 10:23:06;;;;;;;15.00;13.80;;;35.10;23.20;;;;;;5114235;27;20424;-49
2022/03/24 10:25:33;;;;;;;14.00;12.77;;;35.40;22.80;;;;;;5113303;27;20437;-49
2022/03/24 10:28:08;;;;;;;11.63;10.63;;;35.80;23.10;;;;;;5114230;28;20679;-49
2022/03/24 10:31:02;;;;;;;11.40;10.50;;;36.10;22.90;;;;;;5112922;28;20409;-49
2022/03/24 10:33:54;;;;;;;12.90;12.00;;;36.40;22.70;;;;;;5111550;28;20511;-47
2022/03/24 10:36:23;;;;;;;13.67;12.63;;;36.60;22.00;;;;;;5111428;28;20509;-50
2022/03/24 10:38:52;;;;;;;14.00;12.90;;;37.00;21.50;;;;;;5114468;28;20448;-49
2022/03/24 10:41:28;;;;;;;11.63;10.63;;;36.90;21.50;;;;;;5114998;28;20448;-49
2022/03/24 10:43:59;;;;;;;12.07;11.17;;;37.20;22.00;;;;;;5116363;28;20418;-48
2022/03/24 10:46:30;;;;;;;13.83;12.70;;;37.40;21.80;;;;;;5104232;28;20541;-50
2022/03/24 10:48:56;;;;;;;10.97;10.13;;;37.60;21.40;;;;;;5095483;28;20769;-48
2022/03/24 10:51:29;;;;;;;10.10;9.30;;;37.80;21.90;;;;;;5091380;28;20752;-49
2022/03/24 10:54:16;;;;;;;11.63;10.60;;;37.90;22.10;;;;;;5093394;28;20414;-50
2022/03/24 10:57:14;;;;;;;11.43;10.53;;;38.10;21.60;;;;;;5089547;28;20440;-52
2022/03/24 10:59:46;;;;;;;11.00;10.03;;;38.30;21.50;;;;;;5086484;28;20430;-51
2022/03/24 11:02:13;;;;;;;11.17;10.37;;;38.50;21.60;;;;;;5089047;28;20439;-50
2022/03/24 11:04:39;;;;;;;11.93;11.10;;;38.60;21.50;;;;;;5090893;28;20744;-48
2022/03/24 11:07:05;;;;;;;11.23;10.33;;;38.70;21.40;;;;;;5089598;28;20431;-49
2022/03/24 11:09:32;;;;;;;12.57;11.47;;;38.80;21.40;;;;;;5092907;28;20228;-51
2022/03/24 11:12:27;;;;;;;13.60;12.50;;;38.80;21.30;;;;;;5090787;28;20207;-52
2022/03/24 11:15:01;;;;;;;15.90;10.93;;;38.90;21.60;;;;;;5109634;28;20677;-46
2022/03/24 11:17:29;;;;;;;12.43;10.70;;;39.00;21.20;;;;;;5111614;28;20973;-46
2022/03/24 11:20:14;;;;;;;11.03;10.13;;;39.10;21.40;;;;;;5113342;28;20453;-45
2022/03/24 11:23:00;;;;;;;13.83;12.73;;;39.30;21.10;;;;;;5112327;28;20650;-46
2022/03/24 11:25:27;;;;;;;12.60;11.73;;;39.30;20.40;;;;;;5124112;28;20416;-46
2022/03/24 11:27:53;;;;;;;16.17;14.87;;;39.30;20.60;;;;;;5132080;27;20472;-45
2022/03/24 11:30:20;;;;;;;16.07;14.93;;;39.20;19.30;;;;;;5131126;27;20376;-47
2022/03/24 11:32:50;;;;;;;12.43;11.20;;;39.30;19.40;;;;;;5132295;27;20501;-47
2022/03/24 11:35:17;;;;;;;14.73;13.53;;;39.30;21.00;;;;;;5132890;27;20453;-47
2022/03/24 11:37:44;;;;;;;14.50;13.07;;;39.50;20.40;;;;;;5132712;27;20452;-47
2022/03/24 11:40:18;;;;;;;14.27;12.00;;;39.60;21.20;;;;;;5134156;27;20404;-46
2022/03/24 11:42:53;;;;;;;12.10;9.37;;;39.60;21.70;;;;;;5131981;28;20907;-44
2022/03/24 11:45:31;;;;;;;11.60;10.50;;;39.30;23.10;;;;;;5131793;28;20408;-42
2022/03/24 11:48:12;;;;;;;10.93;9.93;;;38.70;22.80;;;;;;5126584;28;20746;-47
2022/03/24 11:50:41;;;;;;;13.47;10.73;;;38.40;23.00;;;;;;5129383;27;20913;-47
2022/03/24 11:53:25;;;;;;;11.57;10.63;;;38.20;22.90;;;;;;5128217;27;20424;-47
2022/03/24 11:56:03;;;;;;;11.97;10.87;;;37.90;22.90;;;;;;5126524;28;20520;-53
2022/03/24 11:58:44;;;;;;;11.60;10.50;;;37.60;22.10;;;;;;5130002;28;20405;-50
2022/03/24 12:01:19;;;;;;;10.47;9.67;;;37.50;22.20;;;;;;5127763;27;20418;-46
2022/03/24 12:03:48;;;;;;;12.50;11.50;;;37.60;22.10;;;;;;5129558;27;20391;-46
2022/03/24 12:06:16;;;;;;;11.50;10.33;;;37.70;21.70;;;;;;5132554;27;20889;-46
2022/03/24 12:08:45;;;;;;;13.60;12.40;;;37.80;21.60;;;;;;5130117;27;20482;-47
2022/03/24 12:11:37;;;;;;;10.63;9.77;;;37.80;20.30;;;;;;5127636;27;20405;-47
2022/03/24 12:14:21;;;;;;;10.73;9.37;;;37.80;21.50;;;;;;5126995;27;20798;-47
2022/03/24 12:16:52;;;;;;;9.47;8.67;;;37.90;21.90;;;;;;5122459;28;20794;-49
2022/03/24 12:19:35;;;;;;;10.03;9.33;;;38.10;21.80;;;;;;5087578;28;20451;-50
2022/03/24 12:22:00;;;;;;;10.17;9.37;;;38.30;21.70;;;;;;5091028;28;20417;-49
2022/03/24 12:24:35;;;;;;;10.80;10.07;;;38.40;21.40;;;;;;5093981;28;20428;-48
2022/03/24 12:27:04;;;;;;;11.83;10.57;;;38.50;21.40;;;;;;5094554;28;20590;-48
2022/03/24 12:29:30;;;;;;;14.17;13.17;;;38.70;21.20;;;;;;5096045;28;20434;-50
2022/03/24 12:32:10;;;;;;;15.80;14.50;;;38.70;20.30;;;;;;5100656;28;20494;-49
2022/03/24 12:34:39;;;;;;;12.63;11.73;;;38.80;19.10;;;;;;5098154;28;20448;-50
2022/03/24 12:37:30;;;;;;;10.90;9.80;;;38.90;20.00;;;;;;5095095;28;20889;-46
2022/03/24 12:40:11;;;;;;;11.27;10.50;;;38.90;20.80;;;;;;5093597;28;20413;-48
2022/03/24 12:42:47;;;;;;;11.30;10.50;;;39.10;20.80;;;;;;5090743;28;20647;-48